Time;durP1;ratioP1;P1;durP2;ratioP2;P2;SDS_P1;SDS_P2;PMS_P1;PMS_P2;Temp;Humidity;BMP_temperature;BMP_pressure;BME280_temperature;BME280_humidity;BME280_pressure;Samples;Min_cycle;Max_cycle;Signal;HPM_P1;HPM_P2
2023/04/26 00:00:12;;;;;;;7.40;5.50;;;;;;;11.97;64.09;98708.15;107740;1267;74649;-77
2023/04/26 00:02:40;;;;;;;7.70;5.80;;;;;;;11.96;63.92;98708.11;108069;1267;62793;-76
2023/04/26 00:05:09;;;;;;;9.60;6.50;;;;;;;11.93;64.48;98712.61;108000;1267;61874;-77
2023/04/26 00:07:37;;;;;;;7.10;5.20;;;;;;;11.90;64.34;98712.85;107586;1267;74686;-75
2023/04/26 00:10:05;;;;;;;8.10;5.80;;;;;;;11.87;64.55;98713.75;107441;1267;71643;-74
2023/04/26 00:12:33;;;;;;;5.90;5.20;;;;;;;11.83;64.70;98714.98;107577;1267;72606;-74
2023/04/26 00:15:00;;;;;;;9.80;5.90;;;;;;;11.81;65.11;98717.21;107530;1269;59479;-75
2023/04/26 00:17:27;;;;;;;7.40;5.90;;;;;;;11.77;65.01;98717.38;107489;1267;61260;-77
2023/04/26 00:19:56;;;;;;;9.40;5.60;;;;;;;11.74;65.10;98720.56;107913;1267;74810;-76
2023/04/26 00:22:24;;;;;;;7.40;6.00;;;;;;;11.71;65.48;98720.52;108125;1266;69068;-77
2023/04/26 00:24:52;;;;;;;8.00;5.50;;;;;;;11.67;65.57;98725.42;108014;1268;73597;-76
2023/04/26 00:27:19;;;;;;;9.30;6.10;;;;;;;11.63;65.88;98723.10;107865;1267;61397;-75
2023/04/26 00:29:46;;;;;;;7.40;6.10;;;;;;;11.59;65.83;98726.29;107787;1267;59723;-74
2023/04/26 00:32:14;;;;;;;7.70;6.20;;;;;;;11.56;66.47;98724.06;107948;1267;74834;-75
2023/04/26 00:34:41;;;;;;;8.20;6.60;;;;;;;11.52;66.35;98723.67;107780;1267;71301;-77
2023/04/26 00:37:08;;;;;;;10.60;5.80;;;;;;;11.48;66.45;98722.19;108026;1267;73508;-75
2023/04/26 00:39:35;;;;;;;6.50;5.90;;;;;;;11.45;66.35;98727.48;107757;1267;61185;-74
2023/04/26 00:42:02;;;;;;;7.80;5.90;;;;;;;11.43;66.61;98726.44;107851;1267;61042;-75
2023/04/26 00:44:30;;;;;;;6.90;6.10;;;;;;;11.39;66.88;98729.23;107915;1267;72936;-74
2023/04/26 00:46:57;;;;;;;7.60;5.80;;;;;;;11.35;67.07;98729.02;108011;1267;71143;-76
2023/04/26 00:49:25;;;;;;;8.00;6.00;;;;;;;11.41;67.40;98734.11;107859;1267;73545;-74
2023/04/26 00:51:52;;;;;;;7.60;5.70;;;;;;;11.41;67.60;98731.81;108187;1268;62114;-77
2023/04/26 00:54:19;;;;;;;6.80;5.00;;;;;;;11.36;67.83;98724.67;108267;1267;61508;-74
2023/04/26 00:56:47;;;;;;;7.40;6.50;;;;;;;11.32;68.10;98728.66;108297;1267;74879;-74
2023/04/26 00:59:14;;;;;;;8.10;7.20;;;;;;;11.28;68.46;98720.95;107805;1267;71137;-75
2023/04/26 01:01:41;;;;;;;9.00;6.20;;;;;;;11.23;68.59;98722.98;107763;1267;70917;-76
2023/04/26 01:04:11;;;;;;;8.40;6.10;;;;;;;11.18;68.63;98722.84;108426;1267;61096;-77
2023/04/26 01:06:40;;;;;;;12.80;6.60;;;;;;;11.14;68.67;98721.92;108187;1266;61612;-75
2023/04/26 01:09:08;;;;;;;13.50;6.40;;;;;;;11.10;69.28;98721.61;107313;1268;73102;-75
2023/04/26 01:11:36;;;;;;;7.90;5.80;;;;;;;11.13;69.04;98720.73;107096;1270;71558;-74
2023/04/26 01:14:04;;;;;;;8.00;6.00;;;;;;;11.20;68.74;98718.52;107277;1268;71453;-74
2023/04/26 01:16:31;;;;;;;7.50;6.70;;;;;;;11.17;69.15;98717.23;107880;1267;61027;-75
2023/04/26 01:19:06;;;;;;;7.00;6.30;;;;;;;11.13;68.84;98715.20;108432;1267;60801;-75
2023/04/26 01:21:34;;;;;;;9.00;6.30;;;;;;;11.11;68.96;98717.03;107863;1267;74827;-71
2023/04/26 01:24:01;;;;;;;8.80;6.30;;;;;;;11.08;69.46;98721.02;107646;1268;72379;-73
2023/04/26 01:26:29;;;;;;;7.20;5.90;;;;;;;11.03;69.37;98716.45;108603;1266;73687;-73
2023/04/26 01:28:57;;;;;;;8.30;6.30;;;;;;;10.97;69.83;98713.84;108500;1266;60077;-72
2023/04/26 01:31:24;;;;;;;7.10;5.70;;;;;;;10.91;69.97;98711.20;108403;1267;61011;-72
2023/04/26 01:33:51;;;;;;;9.80;6.00;;;;;;;10.88;70.24;98705.58;108575;1266;74777;-74
2023/04/26 01:36:19;;;;;;;9.70;5.20;;;;;;;10.92;70.18;98702.33;108461;1267;70100;-72
2023/04/26 01:38:46;;;;;;;9.30;5.60;;;;;;;10.98;70.13;98704.98;108278;1268;73563;-74
2023/04/26 01:41:13;;;;;;;7.60;5.60;;;;;;;10.95;70.41;98701.69;108484;1265;61529;-74
2023/04/26 01:43:40;;;;;;;8.80;6.50;;;;;;;10.92;70.64;98702.78;108227;1267;61230;-74
2023/04/26 01:46:07;;;;;;;6.80;5.60;;;;;;;10.92;70.46;98702.69;108423;1267;74466;-76
2023/04/26 01:48:34;;;;;;;8.40;5.60;;;;;;;10.94;70.42;98701.48;108163;1267;69394;-73
2023/04/26 01:51:01;;;;;;;7.50;5.70;;;;;;;10.95;70.94;98697.11;108158;1268;73030;-74
2023/04/26 01:53:29;;;;;;;6.30;5.20;;;;;;;10.95;70.94;98702.95;108535;1268;61335;-73
2023/04/26 01:56:00;;;;;;;6.90;5.20;;;;;;;11.04;70.94;98703.98;108530;1266;59402;-74
2023/04/26 01:58:28;;;;;;;8.00;5.60;;;;;;;11.11;71.01;98707.86;108524;1266;74485;-74
2023/04/26 02:00:56;;;;;;;7.80;5.80;;;;;;;11.09;71.09;98706.19;108516;1266;69469;-76
2023/04/26 02:03:23;;;;;;;8.60;5.70;;;;;;;11.07;71.17;98706.17;108619;1267;72659;-74
2023/04/26 02:05:50;;;;;;;6.00;5.40;;;;;;;11.06;71.19;98700.11;108556;1266;60585;-76
2023/04/26 02:08:17;;;;;;;5.90;5.40;;;;;;;11.06;71.36;98699.42;108673;1266;59155;-78
2023/04/26 02:10:44;;;;;;;8.40;6.40;;;;;;;11.06;71.39;98696.55;107982;1267;74911;-77
2023/04/26 02:13:12;;;;;;;7.60;5.30;;;;;;;11.08;71.47;98697.52;107680;1267;72707;-79
2023/04/26 02:15:39;;;;;;;5.90;5.00;;;;;;;11.17;71.18;98691.42;108247;1265;71631;-79
2023/04/26 02:18:08;;;;;;;9.80;5.10;;;;;;;11.29;71.25;98688.15;108407;1267;61446;-79
2023/04/26 02:20:36;;;;;;;6.00;5.10;;;;;;;11.33;71.62;98692.83;108320;1267;61230;-80
2023/04/26 02:23:03;;;;;;;6.80;5.10;;;;;;;11.34;71.49;98693.38;108328;1266;74984;-76
2023/04/26 02:25:31;;;;;;;5.90;5.30;;;;;;;11.36;72.00;98689.41;108416;1267;71628;-75
2023/04/26 02:27:58;;;;;;;6.90;5.20;;;;;;;11.36;72.32;98691.05;108444;1267;73429;-74
2023/04/26 02:30:27;;;;;;;6.20;5.30;;;;;;;11.37;72.31;98683.61;108355;1267;61438;-76
2023/04/26 02:32:54;;;;;;;4.90;4.00;;;;;;;11.38;72.72;98684.60;108462;1267;59010;-74
2023/04/26 02:35:22;;;;;;;8.30;4.70;;;;;;;11.52;73.14;98687.63;108473;1266;74834;-74
2023/04/26 02:37:51;;;;;;;6.70;5.80;;;;;;;11.59;73.43;98689.91;108427;1267;71147;-73
2023/04/26 02:40:18;;;;;;;5.60;5.00;;;;;;;11.58;73.68;98684.58;108411;1267;73910;-72
2023/04/26 02:42:45;;;;;;;10.40;5.50;;;;;;;11.57;74.03;98687.13;108428;1273;61299;-75
2023/04/26 02:45:13;;;;;;;6.50;5.80;;;;;;;11.57;74.00;98682.44;108503;1267;60137;-75
2023/04/26 02:47:41;;;;;;;10.10;6.40;;;;;;;11.59;74.19;98681.27;108435;1266;74825;-75
2023/04/26 02:50:08;;;;;;;8.80;5.60;;;;;;;11.59;74.29;98677.27;108476;1267;71235;-75
2023/04/26 02:52:36;;;;;;;8.50;5.10;;;;;;;11.64;74.47;98679.19;108441;1267;73927;-76
2023/04/26 02:55:04;;;;;;;5.50;4.90;;;;;;;11.76;74.11;98674.95;108487;1268;62620;-76
2023/04/26 02:57:31;;;;;;;7.60;5.20;;;;;;;11.82;74.01;98673.10;108479;1267;59317;-78
2023/04/26 02:59:58;;;;;;;7.90;5.50;;;;;;;11.80;74.03;98671.50;108423;1267;73257;-78
2023/04/26 03:02:26;;;;;;;8.80;5.40;;;;;;;11.81;74.03;98673.25;108436;1267;71399;-77
2023/04/26 03:04:54;;;;;;;6.70;5.60;;;;;;;11.84;74.61;98672.84;108180;1266;73819;-75
2023/04/26 03:07:21;;;;;;;9.20;6.00;;;;;;;11.84;74.31;98672.45;108197;1267;61396;-76
2023/04/26 03:09:49;;;;;;;9.50;4.60;;;;;;;11.83;74.38;98672.64;108075;1266;61716;-76
2023/04/26 03:12:16;;;;;;;9.10;5.20;;;;;;;11.92;74.43;98675.18;106026;1268;73602;-77
2023/04/26 03:14:43;;;;;;;7.80;5.40;;;;;;;12.00;74.43;98674.61;105060;1267;72371;-78
2023/04/26 03:17:11;;;;;;;10.40;6.20;;;;;;;11.96;73.88;98674.29;104967;1268;74765;-75
2023/04/26 03:19:39;;;;;;;7.20;6.50;;;;;;;11.84;73.75;98672.11;104856;1268;60434;-77
2023/04/26 03:22:06;;;;;;;7.20;6.30;;;;;;;11.77;73.97;98668.74;104819;1273;60414;-77
2023/04/26 03:24:33;;;;;;;8.70;6.30;;;;;;;11.75;74.03;98670.66;104831;1267;75807;-77
2023/04/26 03:27:01;;;;;;;8.70;6.20;;;;;;;11.70;73.93;98675.92;104847;1266;72196;-76
2023/04/26 03:29:28;;;;;;;7.70;5.50;;;;;;;11.63;73.60;98678.22;104726;1273;73703;-75
2023/04/26 03:31:55;;;;;;;9.10;5.50;;;;;;;11.65;73.63;98675.67;104930;1273;62805;-75
2023/04/26 03:34:23;;;;;;;6.80;5.30;;;;;;;11.67;73.60;98675.61;104932;1268;60574;-75
2023/04/26 03:36:51;;;;;;;6.70;6.00;;;;;;;11.61;73.58;98675.14;104857;1273;73698;-75
2023/04/26 03:39:19;;;;;;;6.90;5.50;;;;;;;11.56;73.58;98671.02;105124;1271;71299;-74
2023/04/26 03:41:46;;;;;;;7.10;5.40;;;;;;;11.50;73.44;98671.79;104898;1268;73381;-74
2023/04/26 03:44:14;;;;;;;6.20;5.50;;;;;;;11.45;73.30;98668.41;104955;1268;62687;-77
2023/04/26 03:46:42;;;;;;;8.10;6.40;;;;;;;11.40;73.01;98670.73;104996;1272;61399;-76
2023/04/26 03:49:09;;;;;;;6.90;6.00;;;;;;;11.36;72.75;98666.27;105043;1268;72707;-74
2023/04/26 03:51:36;;;;;;;8.90;5.10;;;;;;;11.35;72.53;98668.06;105460;1273;69070;-75
2023/04/26 03:54:04;;;;;;;6.10;5.00;;;;;;;11.42;71.76;98667.84;105338;1273;73652;-76
2023/04/26 03:56:31;;;;;;;6.20;4.70;;;;;;;11.48;71.07;98667.90;105327;1268;60571;-76
2023/04/26 03:58:58;;;;;;;5.90;5.30;;;;;;;11.49;71.09;98666.22;105216;1268;60436;-78
2023/04/26 04:01:26;;;;;;;7.10;5.30;;;;;;;11.53;71.12;98658.63;105478;1268;74583;-78
2023/04/26 04:03:54;;;;;;;6.00;5.20;;;;;;;11.60;71.03;98658.02;105155;1271;70438;-75
2023/04/26 04:06:22;;;;;;;6.30;5.00;;;;;;;11.67;70.33;98658.20;105138;1271;73671;-76
2023/04/26 04:08:49;;;;;;;5.70;5.00;;;;;;;11.73;69.70;98658.70;104933;1268;62139;-75
2023/04/26 04:11:17;;;;;;;5.70;5.10;;;;;;;11.77;68.57;98659.87;104827;1273;60513;-75
2023/04/26 04:13:45;;;;;;;6.40;5.30;;;;;;;11.80;68.46;98654.82;104854;1271;75728;-74
2023/04/26 04:16:12;;;;;;;6.10;5.30;;;;;;;11.83;68.25;98660.56;104845;1268;72437;-78
2023/04/26 04:18:40;;;;;;;7.80;4.90;;;;;;;11.84;68.35;98658.68;104835;1268;74864;-76
2023/04/26 04:21:07;;;;;;;6.30;4.80;;;;;;;11.86;68.17;98657.45;104737;1274;61047;-77
2023/04/26 04:23:34;;;;;;;6.30;5.40;;;;;;;11.89;67.42;98655.70;104938;1268;61163;-75
2023/04/26 04:26:06;;;;;;;5.60;5.00;;;;;;;11.91;66.93;98658.56;104852;1268;75175;-76
2023/04/26 04:28:33;;;;;;;7.70;6.10;;;;;;;11.93;67.22;98657.79;104857;1272;72374;-78
2023/04/26 04:31:00;;;;;;;6.10;5.50;;;;;;;11.95;67.47;98650.09;104892;1268;74896;-78
2023/04/26 04:33:28;;;;;;;7.30;5.40;;;;;;;11.96;66.68;98650.29;104948;1268;62501;-76
2023/04/26 04:35:57;;;;;;;11.10;4.70;;;;;;;11.96;66.63;98650.62;105239;1268;63007;-79
2023/04/26 04:38:24;;;;;;;5.80;5.30;;;;;;;11.96;66.48;98649.27;104970;1268;73718;-76
2023/04/26 04:40:52;;;;;;;8.40;5.60;;;;;;;11.97;66.41;98644.64;104871;1270;71442;-75
2023/04/26 04:43:20;;;;;;;7.30;4.50;;;;;;;12.00;66.63;98649.16;104803;1271;74930;-75
2023/04/26 04:45:48;;;;;;;7.20;5.10;;;;;;;12.02;66.63;98652.09;104975;1268;62115;-75
2023/04/26 04:48:15;;;;;;;7.90;5.40;;;;;;;12.04;66.70;98651.23;104877;1268;60704;-73
2023/04/26 04:50:43;;;;;;;7.90;5.50;;;;;;;12.08;66.60;98655.21;104947;1273;75993;-75
2023/04/26 04:53:13;;;;;;;9.20;7.70;;;;;;;12.11;66.98;98659.74;104754;1268;72495;-74
2023/04/26 04:55:40;;;;;;;6.70;5.60;;;;;;;12.12;66.72;98659.02;105130;1271;73696;-77
2023/04/26 04:58:09;;;;;;;7.50;5.00;;;;;;;12.14;66.27;98655.30;105524;1269;62271;-77
2023/04/26 05:00:37;;;;;;;9.90;6.00;;;;;;;12.13;66.30;98657.84;105305;1272;61540;-76
2023/04/26 05:03:15;;;;;;;10.20;5.90;;;;;;;12.12;65.68;98667.05;105121;1270;75966;-77
2023/04/26 05:05:42;;;;;;;10.00;7.10;;;;;;;12.11;65.31;98665.20;104856;1268;71012;-77
2023/04/26 05:08:10;;;;;;;15.80;6.30;;;;;;;12.09;65.44;98668.36;104921;1268;73693;-76
2023/04/26 05:10:37;;;;;;;8.00;5.90;;;;;;;12.09;65.58;98675.49;104812;1272;60659;-75
2023/04/26 05:13:05;;;;;;;9.40;5.40;;;;;;;12.06;65.37;98674.42;104663;1276;62598;-77
2023/04/26 05:15:33;;;;;;;9.70;6.20;;;;;;;12.01;65.79;98674.17;104795;1268;74316;-77
2023/04/26 05:18:00;;;;;;;13.40;6.00;;;;;;;11.95;66.45;98675.92;104836;1268;72357;-77
2023/04/26 05:20:31;;;;;;;10.90;6.00;;;;;;;11.89;67.03;98676.77;104807;1271;74885;-75
2023/04/26 05:22:58;;;;;;;8.30;6.50;;;;;;;11.81;67.55;98677.80;104866;1268;63897;-77
2023/04/26 05:25:26;;;;;;;8.60;5.90;;;;;;;11.83;67.97;98680.38;104889;1268;60495;-77
2023/04/26 05:28:00;;;;;;;12.20;8.50;;;;;;;11.86;68.12;98687.60;104800;1267;76384;-77
2023/04/26 05:30:41;;;;;;;9.60;6.80;;;;;;;11.84;68.76;98675.67;104835;1268;71406;-73
2023/04/26 05:33:40;;;;;;;8.70;6.30;;;;;;;11.84;69.23;98679.48;104541;1268;77396;-77
2023/04/26 05:36:28;;;;;;;9.20;7.20;;;;;;;11.88;69.34;98678.19;104829;1268;61202;-76
2023/04/26 05:38:56;;;;;;;10.70;6.80;;;;;;;11.93;69.36;98676.58;105015;1268;62154;-75
2023/04/26 05:41:23;;;;;;;9.50;6.30;;;;;;;11.97;68.87;98681.37;104960;1267;74277;-77
2023/04/26 05:43:50;;;;;;;8.90;6.30;;;;;;;12.01;69.05;98682.48;104949;1270;69686;-76
2023/04/26 05:46:18;;;;;;;9.80;7.00;;;;;;;12.02;68.94;98679.17;104960;1268;75248;-75
2023/04/26 05:48:45;;;;;;;10.10;6.60;;;;;;;12.04;68.96;98685.80;104797;1271;61804;-76
2023/04/26 05:51:13;;;;;;;16.00;6.40;;;;;;;12.04;69.31;98689.90;104633;1275;62543;-75
2023/04/26 05:53:41;;;;;;;22.90;6.10;;;;;;;12.09;69.20;98685.36;104788;1273;75911;-75
2023/04/26 05:56:08;;;;;;;11.30;5.90;;;;;;;12.16;69.27;98684.42;104795;1274;71432;-75
2023/04/26 05:58:35;;;;;;;10.30;5.70;;;;;;;12.21;69.32;98683.65;104779;1273;74746;-74
2023/04/26 06:01:04;;;;;;;8.60;5.90;;;;;;;12.25;69.39;98682.95;104827;1273;60992;-78
2023/04/26 06:06:10;;;;;;;10.20;5.90;;;;;;;12.28;68.98;98683.31;103385;1289;600624;-78
2023/04/26 06:08:39;;;;;;;8.70;6.20;;;;;;;12.26;68.96;98676.35;104763;1269;62559;-77
2023/04/26 06:11:06;;;;;;;7.30;5.50;;;;;;;12.26;68.91;98674.31;105042;1270;62545;-76
2023/04/26 06:13:33;;;;;;;10.60;7.10;;;;;;;12.31;68.96;98676.06;105536;1257;74222;-77
2023/04/26 06:16:01;;;;;;;8.80;6.20;;;;;;;12.36;68.84;98676.30;105526;1262;72361;-78
2023/04/26 06:18:28;;;;;;;10.30;6.20;;;;;;;12.38;68.89;98676.64;105509;1257;75001;-74
2023/04/26 06:20:55;;;;;;;10.90;6.20;;;;;;;12.43;68.54;98678.15;105959;1259;158970;-75
2023/04/26 06:23:23;;;;;;;14.90;6.10;;;;;;;12.49;68.48;98676.55;105898;1259;61644;-78
2023/04/26 06:25:51;;;;;;;7.20;5.20;;;;;;;12.52;68.17;98679.81;105860;1255;73228;-77
2023/04/26 06:28:18;;;;;;;10.30;5.80;;;;;;;12.56;67.91;98677.69;105977;1257;72376;-75
2023/04/26 06:30:45;;;;;;;113.30;23.10;;;;;;;12.66;67.94;98678.04;105982;1257;71855;-78
2023/04/26 06:33:13;;;;;;;11.50;5.60;;;;;;;12.90;67.51;98689.57;105973;1257;61979;-78
2023/04/26 06:35:40;;;;;;;10.40;5.50;;;;;;;13.04;67.04;98686.67;105744;1253;62296;-75
2023/04/26 06:38:08;;;;;;;11.80;5.90;;;;;;;13.06;66.64;98684.64;105875;1258;72947;-77
2023/04/26 06:40:38;;;;;;;12.60;6.40;;;;;;;13.06;66.75;98689.88;105981;1256;72350;-76
2023/04/26 06:43:05;;;;;;;70.80;14.30;;;;;;;13.06;66.52;98686.35;105799;1259;73130;-75
2023/04/26 06:45:44;;;;;;;11.90;7.10;;;;;;;13.05;66.67;98686.36;105952;1259;59602;-75
2023/04/26 06:48:12;;;;;;;12.00;7.20;;;;;;;13.07;66.80;98682.61;105957;1255;62666;-74
2023/04/26 06:50:40;;;;;;;31.70;10.20;;;;;;;13.11;66.89;98679.40;105981;1255;74130;-75
2023/04/26 06:53:07;;;;;;;11.50;7.10;;;;;;;13.20;66.89;98683.56;105814;1256;70682;-76
2023/04/26 06:55:34;;;;;;;23.10;9.70;;;;;;;13.28;66.56;98686.77;105700;1256;73564;-76
2023/04/26 06:58:02;;;;;;;11.50;7.20;;;;;;;13.31;66.36;98688.73;105755;1259;59657;-75
2023/04/26 07:00:29;;;;;;;11.40;7.00;;;;;;;13.31;66.37;98684.83;105810;1258;60422;-76
2023/04/26 07:02:56;;;;;;;9.40;7.10;;;;;;;13.35;66.28;98687.42;105919;1253;75980;-77
2023/04/26 07:05:24;;;;;;;10.70;6.80;;;;;;;13.41;66.08;98689.62;105622;1259;71239;-76
2023/04/26 07:07:51;;;;;;;12.10;7.10;;;;;;;13.46;65.85;98680.00;105642;1262;73483;-76
2023/04/26 07:10:20;;;;;;;123.30;23.50;;;;;;;13.48;65.57;98678.89;105520;1256;62357;-75
2023/04/26 07:12:47;;;;;;;112.40;22.60;;;;;;;13.53;65.54;98681.52;105808;1256;59996;-76
2023/04/26 07:15:14;;;;;;;13.90;7.20;;;;;;;13.64;65.43;98680.81;105589;1256;75040;-74
2023/04/26 07:17:42;;;;;;;9.10;6.40;;;;;;;13.76;65.20;98677.08;105555;1256;71251;-74
2023/04/26 07:20:09;;;;;;;12.90;6.40;;;;;;;13.91;64.82;98676.61;105554;1256;71051;-76
2023/04/26 07:22:37;;;;;;;12.10;6.10;;;;;;;14.07;64.21;98675.15;105662;1256;62453;-77
2023/04/26 07:25:05;;;;;;;98.20;19.30;;;;;;;14.25;63.81;98671.16;105660;1258;60868;-78
2023/04/26 07:27:32;;;;;;;21.50;7.40;;;;;;;14.46;63.06;98672.56;105489;1262;74970;-76
2023/04/26 07:29:59;;;;;;;10.50;6.60;;;;;;;14.67;62.37;98670.50;105541;1257;72322;-77
2023/04/26 07:32:26;;;;;;;8.60;6.30;;;;;;;14.91;61.65;98673.16;105523;1259;75109;-75
2023/04/26 07:34:53;;;;;;;12.10;7.00;;;;;;;15.12;60.66;98671.76;105712;1257;61240;-76
2023/04/26 07:37:20;;;;;;;10.40;6.20;;;;;;;15.32;60.33;98676.05;105705;1256;62502;-76
2023/04/26 07:39:48;;;;;;;12.00;5.90;;;;;;;15.52;59.37;98692.34;105538;1256;74044;-77
2023/04/26 07:42:15;;;;;;;11.60;6.60;;;;;;;15.63;58.65;98702.91;105540;1262;69937;-78
2023/04/26 07:44:43;;;;;;;12.10;7.00;;;;;;;15.58;58.15;98698.29;105711;1257;72939;-74
2023/04/26 07:47:12;;;;;;;27.70;9.00;;;;;;;15.49;58.38;98689.96;105698;1259;59666;-77
2023/04/26 07:49:39;;;;;;;12.20;6.40;;;;;;;15.55;58.57;98693.47;105686;1256;61365;-77
2023/04/26 07:52:07;;;;;;;12.70;6.70;;;;;;;15.67;58.49;98699.33;105495;1256;75186;-76
2023/04/26 07:54:34;;;;;;;23.20;7.20;;;;;;;15.78;58.09;98697.34;105648;1262;69613;-73
2023/04/26 07:57:02;;;;;;;15.30;7.50;;;;;;;15.96;58.22;98700.98;105744;1259;75024;-77
2023/04/26 07:59:29;;;;;;;12.20;6.80;;;;;;;16.12;57.71;98700.77;105673;1257;60986;-77
2023/04/26 08:01:56;;;;;;;12.30;7.00;;;;;;;16.25;57.57;98702.14;105588;1257;62384;-76
2023/04/26 08:04:31;;;;;;;15.00;6.50;;;;;;;16.36;57.51;98703.05;105651;1256;75117;-76
2023/04/26 08:07:00;;;;;;;15.30;7.20;;;;;;;16.42;57.44;98706.94;105630;1257;72292;-76
2023/04/26 08:09:29;;;;;;;14.90;7.10;;;;;;;16.49;57.57;98709.66;105646;1257;74731;-76
2023/04/26 08:11:57;;;;;;;13.00;7.10;;;;;;;16.58;57.66;98699.37;105655;1257;62957;-76
2023/04/26 08:14:24;;;;;;;10.30;6.60;;;;;;;16.66;57.61;98700.31;105719;1260;61499;-77
2023/04/26 08:16:51;;;;;;;11.80;6.80;;;;;;;16.75;57.68;98707.29;105741;1256;73967;-76
2023/04/26 08:19:18;;;;;;;10.70;6.40;;;;;;;16.85;57.57;98697.55;105664;1256;72707;-77
2023/04/26 08:21:46;;;;;;;109.90;18.00;;;;;;;16.93;57.01;98704.06;105566;1260;73022;-77
2023/04/26 08:24:13;;;;;;;13.30;6.90;;;;;;;16.85;57.12;98697.23;105536;1258;60757;-74
2023/04/26 08:26:40;;;;;;;8.30;5.80;;;;;;;16.82;57.29;98700.91;106140;1256;60035;-77
2023/04/26 08:29:07;;;;;;;25.40;7.70;;;;;;;16.83;57.21;98699.05;106317;1256;74087;-77
2023/04/26 08:31:34;;;;;;;11.10;6.70;;;;;;;16.77;57.44;98696.36;106238;1257;72412;-78
2023/04/26 08:34:02;;;;;;;17.30;6.90;;;;;;;16.74;57.49;98699.27;105814;1256;75024;-76
2023/04/26 08:36:31;;;;;;;36.70;8.50;;;;;;;16.74;57.71;98705.42;106097;1256;61169;-76
2023/04/26 08:38:58;;;;;;;51.80;13.00;;;;;;;16.74;57.53;98707.69;105998;1256;62088;-76
2023/04/26 08:41:25;;;;;;;72.70;16.70;;;;;;;16.67;57.78;98707.75;105683;1256;75036;-78
2023/04/26 08:43:53;;;;;;;31.70;9.70;;;;;;;16.55;57.97;98707.47;105624;1256;71435;-76
2023/04/26 08:46:20;;;;;;;32.90;9.50;;;;;;;16.49;58.31;98711.89;105729;1259;75229;-76
2023/04/26 08:48:51;;;;;;;150.30;27.60;;;;;;;16.40;58.63;98709.04;105648;1257;61932;-76
2023/04/26 08:51:18;;;;;;;12.30;6.40;;;;;;;16.31;58.91;98706.29;105853;1257;59660;-77
2023/04/26 08:53:45;;;;;;;11.00;6.30;;;;;;;16.27;59.15;98711.52;105656;1261;73252;-75
2023/04/26 08:56:14;;;;;;;10.80;6.50;;;;;;;16.19;59.25;98700.30;105761;1256;72234;-77
2023/04/26 08:58:41;;;;;;;7.90;5.90;;;;;;;16.19;59.68;98709.22;105657;1257;74867;-77
2023/04/26 09:01:08;;;;;;;6.70;6.00;;;;;;;16.09;59.81;98705.52;105764;1259;61244;-77
2023/04/26 09:03:35;;;;;;;12.20;6.20;;;;;;;16.04;60.29;98701.23;105747;1255;62585;-75
2023/04/26 09:06:02;;;;;;;14.10;7.30;;;;;;;15.98;60.95;98695.02;105754;1259;75128;-75
2023/04/26 09:08:33;;;;;;;8.70;6.00;;;;;;;16.00;61.16;98697.95;105566;1257;72541;-77
2023/04/26 09:11:00;;;;;;;9.40;6.60;;;;;;;16.09;61.09;98699.83;105469;1256;74579;-77
2023/04/26 09:13:29;;;;;;;10.40;6.30;;;;;;;16.22;61.00;98695.19;105668;1259;61514;-78
2023/04/26 09:15:56;;;;;;;11.50;5.80;;;;;;;16.35;60.82;98697.65;105626;1256;59666;-77
2023/04/26 09:18:23;;;;;;;11.10;7.10;;;;;;;16.42;60.70;98698.41;105582;1256;71407;-77
2023/04/26 09:21:12;;;;;;;10.90;6.00;;;;;;;16.41;60.85;98695.83;105711;1259;71325;-76
2023/04/26 09:23:58;;;;;;;7.40;5.80;;;;;;;16.35;60.87;98693.11;105583;1256;74440;-75
2023/04/26 09:26:25;;;;;;;6.80;6.10;;;;;;;16.28;61.13;98694.13;105586;1262;59712;-77
2023/04/26 09:29:12;;;;;;;9.50;6.20;;;;;;;16.17;61.48;98703.38;105567;1257;61221;-77
2023/04/26 09:31:42;;;;;;;7.30;5.60;;;;;;;15.93;62.05;98705.34;105587;1256;74228;-77
2023/04/26 09:34:10;;;;;;;8.80;5.80;;;;;;;15.72;62.72;98700.71;105732;1259;72999;-77
2023/04/26 09:36:51;;;;;;;8.80;6.20;;;;;;;15.59;63.32;98704.45;105856;1259;72577;-76
2023/04/26 09:39:31;;;;;;;7.30;6.10;;;;;;;15.53;63.89;98708.11;105769;1256;62526;-78
2023/04/26 09:41:58;;;;;;;7.00;6.30;;;;;;;15.50;65.07;98708.77;105637;1257;61447;-76
2023/04/26 09:44:26;;;;;;;10.70;6.90;;;;;;;15.45;66.48;98716.94;105745;1256;75144;-76
2023/04/26 09:47:03;;;;;;;8.60;6.90;;;;;;;15.36;67.31;98711.12;105636;1256;69347;-76
2023/04/26 09:49:32;;;;;;;8.60;6.00;;;;;;;15.25;69.06;98716.52;105697;1256;74687;-76
2023/04/26 09:52:03;;;;;;;7.20;5.60;;;;;;;15.19;69.52;98716.17;105506;1257;64377;-77
2023/04/26 09:54:37;;;;;;;8.60;6.40;;;;;;;15.21;70.54;98714.71;105720;1257;60546;-78
2023/04/26 09:57:04;;;;;;;7.10;5.40;;;;;;;15.19;70.86;98720.70;105658;1257;74139;-77
2023/04/26 09:59:44;;;;;;;5.70;5.10;;;;;;;15.14;70.94;98725.62;105674;1260;70593;-77
2023/04/26 10:02:15;;;;;;;8.80;5.90;;;;;;;15.08;71.83;98723.67;105711;1257;74620;-76
2023/04/26 10:04:44;;;;;;;7.50;5.80;;;;;;;15.03;72.57;98725.23;105676;1256;62703;-74
2023/04/26 10:07:11;;;;;;;7.10;6.10;;;;;;;15.05;73.51;98723.27;105831;1257;61340;-78
2023/04/26 10:09:39;;;;;;;7.90;6.00;;;;;;;15.24;74.24;98723.56;105796;1257;73664;-76
2023/04/26 10:12:10;;;;;;;7.70;6.20;;;;;;;15.44;74.35;98732.22;105846;1257;72482;-79
2023/04/26 10:14:37;;;;;;;7.20;6.30;;;;;;;15.60;72.88;98732.08;105681;1261;74727;-76
2023/04/26 10:17:04;;;;;;;6.80;6.10;;;;;;;15.65;71.83;98729.00;105715;1257;61209;-76
2023/04/26 10:19:33;;;;;;;12.30;7.20;;;;;;;15.67;70.93;98727.34;105871;1260;62184;-76
2023/04/26 10:22:06;;;;;;;9.60;6.60;;;;;;;15.62;70.61;98731.52;105922;1258;74862;-73
2023/04/26 10:24:34;;;;;;;11.80;7.00;;;;;;;15.50;70.79;98735.65;105934;1260;70315;-75
2023/04/26 10:27:03;;;;;;;7.60;6.80;;;;;;;15.37;71.55;98732.75;105821;1260;74639;-75
2023/04/26 10:29:53;;;;;;;9.40;6.40;;;;;;;15.34;71.67;98730.00;105467;1259;62547;-77
2023/04/26 10:32:20;;;;;;;56.20;13.40;;;;;;;15.37;72.54;98732.05;105749;1255;62297;-77
2023/04/26 10:35:15;;;;;;;16.40;8.00;;;;;;;15.35;72.76;98732.70;105620;1257;74839;-77
2023/04/26 10:38:01;;;;;;;11.50;7.20;;;;;;;15.38;73.11;98728.55;105588;1260;71318;-75
2023/04/26 10:40:29;;;;;;;23.30;9.00;;;;;;;15.42;73.38;98729.70;105672;1260;73596;-77
2023/04/26 10:43:15;;;;;;;14.20;7.90;;;;;;;15.58;73.42;98728.85;105747;1260;61043;-77
2023/04/26 10:45:43;;;;;;;20.20;9.20;;;;;;;15.84;73.28;98730.07;105818;1255;60662;-76
2023/04/26 10:48:16;;;;;;;10.60;7.20;;;;;;;16.12;72.78;98726.20;105686;1256;76244;-76
2023/04/26 10:51:07;;;;;;;16.50;6.70;;;;;;;16.46;71.82;98729.44;105670;1256;72923;-76
2023/04/26 10:53:34;;;;;;;12.40;7.10;;;;;;;16.69;70.57;98725.42;105593;1257;72905;-77
2023/04/26 10:56:01;;;;;;;12.80;6.90;;;;;;;16.81;70.13;98720.07;105650;1261;60510;-75
2023/04/26 10:58:32;;;;;;;16.10;8.30;;;;;;;16.86;69.53;98727.09;105618;1261;60436;-73
2023/04/26 11:01:10;;;;;;;19.10;8.00;;;;;;;16.90;69.47;98728.30;105515;1256;76138;-75
2023/04/26 11:03:39;;;;;;;8.90;7.00;;;;;;;16.87;68.33;98729.09;105518;1257;68462;-76
2023/04/26 11:06:12;;;;;;;9.30;6.20;;;;;;;16.68;68.24;98737.84;105609;1260;74882;-76
2023/04/26 11:08:39;;;;;;;8.20;6.30;;;;;;;16.42;68.22;98759.26;105639;1260;60460;-75
2023/04/26 11:11:10;;;;;;;12.50;7.70;;;;;;;16.09;69.12;98749.83;105778;1258;61186;-74
2023/04/26 11:13:41;;;;;;;29.60;8.60;;;;;;;15.82;70.22;98743.14;105716;1262;75677;-75
2023/04/26 11:16:10;;;;;;;8.40;5.70;;;;;;;15.73;70.98;98741.65;105653;1262;71244;-74
2023/04/26 11:18:39;;;;;;;109.00;21.70;;;;;;;15.77;71.34;98746.05;105586;1262;72830;-75
2023/04/26 11:21:06;;;;;;;43.10;12.00;;;;;;;15.83;71.95;98741.65;105654;1257;60708;-75
2023/04/26 11:23:34;;;;;;;13.70;7.80;;;;;;;15.89;72.00;98746.55;105787;1256;61271;-76
2023/04/26 11:26:05;;;;;;;23.40;9.40;;;;;;;16.07;72.15;98743.91;105696;1262;74451;-74
2023/04/26 11:28:33;;;;;;;21.10;9.60;;;;;;;16.34;71.87;98744.21;105777;1258;72925;-75
2023/04/26 11:31:02;;;;;;;15.50;7.40;;;;;;;16.59;71.27;98741.30;105751;1257;73643;-75